Weather at Bergerac-Roumanière Airport

Public forecast

Using degrees Celsius for public forecast. Weather courtesy of forecast.io.

Current aviation weather report (METAR) for Bergerac-Roumanière Airport

Retrieved 2022/08/09 16:00 UTC (9 minutes ago):

LFBE 091600Z AUTO 04006KT 360V080 CAVOK 36/06 Q1016 NOSIG

Aviation forecast (TAF) for Bergerac-Roumanière Airport

Retrieved 2022/08/09 12:21 UTC (4 hours ago):

TAF LFBE 091100Z 0912/1012 VRB03KT CAVOK BECMG 1008/1010 09005KT